Time;durP1;ratioP1;P1;durP2;ratioP2;P2;SDS_P1;SDS_P2;PMS_P1;PMS_P2;Temp;Humidity;BMP_temperature;BMP_pressure;BME280_temperature;BME280_humidity;BME280_pressure;Samples;Min_cycle;Max_cycle;Signal;HPM_P1;HPM_P2
2021/06/16 00:01:09;;;;;;;2.40;2.20;;;;;;;18.20;48.26;95710.84;4986090;28;20638;-73
2021/06/16 00:03:34;;;;;;;3.47;2.15;;;;;;;18.16;48.21;95714.03;4977396;28;20180;-73
2021/06/16 00:05:59;;;;;;;5.25;2.33;;;;;;;18.16;47.94;95711.41;4977625;28;20191;-73
2021/06/16 00:08:25;;;;;;;3.80;2.40;;;;;;;18.14;47.94;95714.22;4977572;28;20203;-73
2021/06/16 00:10:51;;;;;;;2.75;2.25;;;;;;;18.11;48.22;95704.91;4994346;28;20193;-73
2021/06/16 00:13:17;;;;;;;3.72;2.40;;;;;;;18.08;48.39;95707.09;4980626;28;20210;-73
2021/06/16 00:15:43;;;;;;;3.20;2.90;;;;;;;18.04;48.42;95708.50;4988096;28;20254;-73
2021/06/16 00:18:09;;;;;;;3.67;2.20;;;;;;;18.02;48.51;95705.22;5014076;28;20179;-73
2021/06/16 00:20:35;;;;;;;5.45;2.50;;;;;;;17.99;48.69;95714.28;4979726;28;20689;-73
2021/06/16 00:23:01;;;;;;;2.33;2.10;;;;;;;17.96;49.10;95706.00;4986578;28;20184;-73
2021/06/16 00:25:26;;;;;;;3.70;2.60;;;;;;;17.92;48.81;95702.91;4960706;28;20270;-73
2021/06/16 00:27:52;;;;;;;3.95;2.50;;;;;;;17.91;48.89;95700.47;4976997;28;20183;-73
2021/06/16 00:30:17;;;;;;;4.88;3.15;;;;;;;17.91;48.74;95697.84;4979431;28;20194;-72
2021/06/16 00:32:43;;;;;;;4.47;2.35;;;;;;;17.90;48.88;95704.91;5005954;28;20186;-74
2021/06/16 00:35:09;;;;;;;3.55;2.03;;;;;;;17.91;48.92;95697.84;4977153;28;20210;-74
2021/06/16 00:37:35;;;;;;;4.40;2.65;;;;;;;17.86;48.91;95700.25;4976115;28;20308;-73
2021/06/16 00:40:02;;;;;;;3.38;2.42;;;;;;;17.85;49.07;95698.63;4994425;28;20175;-73
2021/06/16 00:42:28;;;;;;;3.53;2.53;;;;;;;17.92;49.06;95699.47;4984649;28;20196;-73
2021/06/16 00:44:53;;;;;;;3.75;2.15;;;;;;;17.88;48.87;95700.88;4993548;28;20233;-73
2021/06/16 00:47:19;;;;;;;3.22;2.50;;;;;;;17.91;48.55;95698.66;4996096;28;20662;-73
2021/06/16 00:49:45;;;;;;;3.28;2.30;;;;;;;17.96;48.68;95698.09;5012736;28;20183;-73
2021/06/16 00:52:10;;;;;;;2.60;2.17;;;;;;;17.98;48.69;95696.91;4987478;28;20773;-73
2021/06/16 00:54:36;;;;;;;3.08;2.28;;;;;;;17.96;48.93;95706.81;4984492;28;20275;-73
2021/06/16 00:57:01;;;;;;;2.60;2.30;;;;;;;17.99;48.78;95700.34;4976833;28;20176;-73
2021/06/16 00:59:32;;;;;;;2.70;2.20;;;;;;;17.98;48.84;95698.72;4976734;28;20286;-73
2021/06/16 01:01:58;;;;;;;2.63;2.10;;;;;;;17.98;49.17;95701.34;4976541;28;20190;-73
2021/06/16 01:04:25;;;;;;;2.40;2.20;;;;;;;17.94;49.15;95695.69;4987512;28;20206;-74
2021/06/16 01:06:57;;;;;;;3.50;2.20;;;;;;;17.95;49.26;95696.50;4979270;28;20668;-74
2021/06/16 01:09:43;;;;;;;3.33;2.35;;;;;;;17.92;49.36;95696.84;4976588;28;20191;-74
2021/06/16 01:12:22;;;;;;;5.30;2.42;;;;;;;17.91;49.71;95695.22;4976723;28;20547;-74
2021/06/16 01:15:03;;;;;;;2.75;2.40;;;;;;;17.89;49.71;95692.78;5001875;28;20231;-74
2021/06/16 01:17:37;;;;;;;3.55;2.40;;;;;;;17.89;49.86;95694.59;5013378;28;20232;-74
2021/06/16 01:20:20;;;;;;;2.50;2.30;;;;;;;17.85;50.31;95693.38;4979646;28;20643;-73
2021/06/16 01:22:52;;;;;;;3.17;2.17;;;;;;;17.85;50.39;95696.00;4995760;28;20264;-73
2021/06/16 01:25:19;;;;;;;3.13;2.40;;;;;;;17.81;50.28;95692.91;5003782;28;20211;-73
2021/06/16 01:27:45;;;;;;;2.92;2.22;;;;;;;17.80;50.23;95686.84;4996702;28;20539;-74
2021/06/16 01:30:11;;;;;;;3.30;2.22;;;;;;;17.77;50.56;95689.06;4993575;28;20203;-73
2021/06/16 01:32:37;;;;;;;2.85;2.58;;;;;;;17.76;50.72;95690.88;4993472;28;20179;-73
2021/06/16 01:35:03;;;;;;;3.13;2.40;;;;;;;17.74;50.79;95684.16;4982190;28;20215;-74
2021/06/16 01:37:28;;;;;;;2.40;2.20;;;;;;;17.72;51.01;95679.09;4983929;28;20180;-73
2021/06/16 01:39:56;;;;;;;3.95;2.38;;;;;;;17.71;51.02;95677.47;4976009;28;20602;-72
2021/06/16 01:42:22;;;;;;;3.05;2.20;;;;;;;17.73;51.21;95680.72;4975895;28;20194;-72
2021/06/16 01:44:51;;;;;;;3.40;2.45;;;;;;;17.75;51.24;95676.09;4977393;28;20215;-72
2021/06/16 01:47:18;;;;;;;3.70;2.60;;;;;;;17.73;51.47;95680.72;4983512;28;20259;-72
2021/06/16 01:49:46;;;;;;;5.00;2.55;;;;;;;17.69;51.39;95683.91;4975631;28;20188;-72
2021/06/16 01:52:11;;;;;;;3.03;2.50;;;;;;;17.70;51.48;95678.50;4959519;28;20670;-72
2021/06/16 01:54:37;;;;;;;4.43;2.25;;;;;;;17.69;51.73;95676.03;4975399;28;20196;-72
2021/06/16 01:57:03;;;;;;;5.80;2.17;;;;;;;17.68;51.88;95682.28;4999647;28;20188;-72
2021/06/16 01:59:28;;;;;;;5.57;2.42;;;;;;;17.66;51.84;95685.06;4998869;28;20199;-73
2021/06/16 02:01:54;;;;;;;4.05;2.85;;;;;;;17.64;52.16;95679.19;4975437;28;20267;-73
2021/06/16 02:04:19;;;;;;;5.70;2.60;;;;;;;17.62;52.14;95673.34;4975142;28;20296;-72
2021/06/16 02:06:49;;;;;;;3.63;2.17;;;;;;;17.62;52.18;95672.53;4999961;28;20183;-72
2021/06/16 02:09:16;;;;;;;3.70;2.22;;;;;;;17.62;52.29;95667.25;4987089;28;20183;-73
2021/06/16 02:11:42;;;;;;;2.53;2.10;;;;;;;17.60;52.27;95671.91;4994907;28;20195;-72
2021/06/16 02:14:12;;;;;;;2.63;2.40;;;;;;;17.60;52.06;95671.91;5012095;28;20199;-73
2021/06/16 02:16:54;;;;;;;4.18;2.28;;;;;;;17.65;52.14;95672.94;4993788;28;20190;-72
2021/06/16 02:19:22;;;;;;;2.42;2.22;;;;;;;17.69;51.68;95670.78;4987503;28;20587;-73
2021/06/16 02:21:47;;;;;;;5.80;2.60;;;;;;;17.71;51.63;95664.34;4994661;28;20274;-72
2021/06/16 02:24:12;;;;;;;5.38;2.70;;;;;;;17.78;51.31;95659.97;4978007;28;20207;-72
2021/06/16 02:26:38;;;;;;;3.17;2.60;;;;;;;17.85;51.00;95659.22;4978570;28;20178;-72
2021/06/16 02:29:05;;;;;;;4.28;2.40;;;;;;;17.88;50.97;95659.66;4985893;28;20183;-72
2021/06/16 02:31:30;;;;;;;3.70;2.47;;;;;;;17.90;50.98;95652.38;4980509;28;20180;-73
2021/06/16 02:33:56;;;;;;;3.95;2.53;;;;;;;17.92;50.89;95653.00;4974559;28;20639;-73
2021/06/16 02:36:22;;;;;;;4.03;2.35;;;;;;;17.97;50.73;95655.06;4975023;28;20183;-72
2021/06/16 02:38:52;;;;;;;4.07;2.60;;;;;;;18.00;50.60;95650.22;4966160;28;20650;-73
2021/06/16 02:41:18;;;;;;;5.32;2.65;;;;;;;18.00;50.55;95642.34;4982746;28;20271;-73
2021/06/16 02:43:43;;;;;;;3.95;2.75;;;;;;;18.00;50.68;95647.59;4958322;28;20268;-72
2021/06/16 02:46:10;;;;;;;3.95;2.55;;;;;;;18.00;50.50;95650.22;4974887;28;20191;-72
2021/06/16 02:48:39;;;;;;;3.42;2.30;;;;;;;17.99;50.46;95651.25;4975677;28;20184;-73
2021/06/16 02:51:05;;;;;;;3.17;2.38;;;;;;;17.98;50.97;95643.56;4969578;28;20214;-73
2021/06/16 02:53:30;;;;;;;6.43;2.58;;;;;;;17.96;50.80;95646.38;4994118;28;20258;-73
2021/06/16 02:56:01;;;;;;;6.93;2.42;;;;;;;17.93;50.81;95641.47;4994229;28;20187;-73
2021/06/16 02:58:27;;;;;;;3.92;2.50;;;;;;;17.96;50.88;95640.31;4994058;28;20191;-72
2021/06/16 03:01:02;;;;;;;6.22;2.35;;;;;;;17.89;51.05;95642.06;4968249;28;20687;-73
2021/06/16 03:03:27;;;;;;;3.88;2.55;;;;;;;17.85;50.89;95638.22;4993842;28;20182;-73
2021/06/16 03:05:55;;;;;;;2.53;2.25;;;;;;;17.84;51.13;95640.00;4994073;28;20211;-73
2021/06/16 03:08:22;;;;;;;2.65;2.42;;;;;;;17.92;50.88;95631.16;4994124;28;20175;-72
2021/06/16 03:10:47;;;;;;;4.13;2.67;;;;;;;17.85;51.19;95636.41;4984311;28;20635;-72
2021/06/16 03:13:13;;;;;;;3.83;2.60;;;;;;;17.79;51.31;95637.16;4985644;28;20205;-72
2021/06/16 03:15:43;;;;;;;5.72;2.63;;;;;;;17.79;51.53;95632.69;4994070;28;20280;-72
2021/06/16 03:18:10;;;;;;;5.82;2.20;;;;;;;17.76;51.31;95633.09;4993884;28;20178;-72
2021/06/16 03:20:36;;;;;;;3.30;2.83;;;;;;;17.76;51.60;95633.09;4993183;28;20290;-72
2021/06/16 03:23:02;;;;;;;5.70;2.95;;;;;;;17.73;51.59;95633.44;4983772;28;20262;-72
2021/06/16 03:25:27;;;;;;;4.05;2.70;;;;;;;17.77;52.00;95634.72;4974074;28;20266;-72
2021/06/16 03:27:53;;;;;;;5.22;2.40;;;;;;;17.76;52.27;95630.47;4974099;28;20187;-71
2021/06/16 03:30:22;;;;;;;2.75;2.55;;;;;;;17.72;52.54;95636.28;4991915;28;20267;-72
2021/06/16 03:32:55;;;;;;;5.03;2.35;;;;;;;17.79;52.44;95637.97;4980111;28;20195;-73
2021/06/16 03:35:20;;;;;;;6.72;3.13;;;;;;;17.76;52.37;95643.59;4980826;28;20214;-72
2021/06/16 03:37:46;;;;;;;3.72;3.28;;;;;;;17.91;52.01;95638.25;4974517;28;20180;-72
2021/06/16 03:40:13;;;;;;;3.72;2.88;;;;;;;17.98;51.68;95635.66;4974551;28;20180;-72
2021/06/16 03:42:39;;;;;;;4.38;2.80;;;;;;;18.18;51.07;95631.34;4980119;28;20183;-72
2021/06/16 03:45:07;;;;;;;3.25;2.95;;;;;;;18.19;50.89;95638.22;4985234;28;20563;-74
2021/06/16 03:47:34;;;;;;;3.92;2.35;;;;;;;18.33;50.65;95634.69;4993825;28;20179;-74
2021/06/16 03:50:00;;;;;;;2.80;2.58;;;;;;;18.38;50.71;95636.75;4977493;28;20270;-74
2021/06/16 03:52:25;;;;;;;6.15;2.85;;;;;;;18.51;50.22;95634.19;4976643;28;20207;-74
2021/06/16 03:54:53;;;;;;;2.80;2.60;;;;;;;18.66;50.11;95640.16;4984566;28;20206;-74
2021/06/16 03:57:20;;;;;;;3.60;2.72;;;;;;;18.76;49.80;95629.28;4979819;28;20175;-74
2021/06/16 03:59:45;;;;;;;3.05;2.45;;;;;;;18.92;49.92;95628.94;4985393;28;20242;-74
2021/06/16 04:02:15;;;;;;;8.02;2.70;;;;;;;19.08;49.09;95627.78;5011161;28;20587;-73
2021/06/16 04:04:40;;;;;;;3.63;2.47;;;;;;;19.33;48.59;95630.66;4985743;28;20222;-73
2021/06/16 04:07:06;;;;;;;5.60;2.60;;;;;;;19.49;48.51;95621.56;4999565;28;20597;-73
2021/06/16 04:09:31;;;;;;;3.47;2.28;;;;;;;19.69;48.33;95626.88;4975872;28;20239;-74
2021/06/16 04:11:57;;;;;;;3.20;2.90;;;;;;;20.27;46.68;95624.41;4960569;28;20180;-73
2021/06/16 04:14:25;;;;;;;5.28;2.58;;;;;;;20.59;46.25;95622.75;4998229;28;20211;-74
2021/06/16 04:16:53;;;;;;;6.10;2.78;;;;;;;21.42;44.30;95620.13;5004622;28;20265;-74
2021/06/16 04:19:18;;;;;;;2.67;2.47;;;;;;;22.10;42.68;95625.53;4986001;28;20241;-74
2021/06/16 04:21:43;;;;;;;2.70;2.30;;;;;;;22.89;41.01;95621.28;4977718;28;20211;-74
2021/06/16 04:24:09;;;;;;;6.63;2.50;;;;;;;23.89;38.40;95626.81;4960733;28;20306;-74
2021/06/16 04:26:34;;;;;;;3.30;2.35;;;;;;;24.79;36.25;95623.00;5003678;28;20262;-73
2021/06/16 04:28:59;;;;;;;4.70;2.35;;;;;;;26.14;34.15;95622.25;4978812;28;20212;-73
2021/06/16 04:31:25;;;;;;;6.00;2.50;;;;;;;26.51;32.95;95627.09;4994711;28;20571;-73
2021/06/16 04:33:50;;;;;;;3.25;2.78;;;;;;;27.37;31.59;95625.47;4976892;28;20685;-74
2021/06/16 04:36:16;;;;;;;3.53;2.47;;;;;;;27.34;31.33;95625.19;4982360;28;20180;-74
2021/06/16 04:38:41;;;;;;;3.47;2.80;;;;;;;26.93;31.31;95632.69;4985059;28;20188;-73
2021/06/16 04:41:06;;;;;;;5.45;2.42;;;;;;;27.51;31.03;95630.44;4994341;28;20215;-73
2021/06/16 04:43:32;;;;;;;3.03;2.38;;;;;;;28.15;30.17;95625.13;4976891;28;20179;-74
2021/06/16 04:45:57;;;;;;;5.45;2.65;;;;;;;29.03;28.54;95631.56;4977543;28;20297;-73
2021/06/16 04:48:22;;;;;;;2.80;2.28;;;;;;;30.01;27.10;95630.69;4987304;28;20179;-74
2021/06/16 04:50:48;;;;;;;5.22;2.40;;;;;;;30.41;26.30;95629.91;4996394;28;20699;-75
2021/06/16 04:53:13;;;;;;;4.57;2.40;;;;;;;30.04;26.75;95626.69;5013605;28;20175;-74
2021/06/16 04:55:38;;;;;;;4.00;2.55;;;;;;;29.89;26.80;95624.81;5013736;28;20316;-72
2021/06/16 04:58:04;;;;;;;5.78;2.42;;;;;;;31.00;25.55;95629.22;4986917;28;20187;-73
2021/06/16 05:00:29;;;;;;;3.55;2.33;;;;;;;29.78;26.87;95628.56;4982339;28;20647;-72
2021/06/16 05:02:57;;;;;;;5.88;2.17;;;;;;;30.20;26.34;95627.50;4993993;28;20187;-74
2021/06/16 05:05:23;;;;;;;4.47;2.50;;;;;;;29.89;26.79;95627.50;4976284;28;20203;-72
2021/06/16 05:07:48;;;;;;;4.10;2.20;;;;;;;31.30;24.98;95635.56;4981786;28;20806;-74
2021/06/16 05:10:14;;;;;;;3.33;2.28;;;;;;;30.11;26.32;95636.06;4984483;28;20223;-74
2021/06/16 05:12:39;;;;;;;4.50;2.33;;;;;;;30.85;25.39;95631.97;4993821;28;20168;-74
2021/06/16 05:15:06;;;;;;;2.33;2.13;;;;;;;31.42;24.08;95632.53;4976268;28;20608;-73
2021/06/16 05:17:31;;;;;;;3.03;2.63;;;;;;;30.22;25.57;95631.53;4976301;28;20183;-74
2021/06/16 05:19:57;;;;;;;3.72;2.40;;;;;;;29.21;26.81;95627.59;4985025;28;20563;-73
2021/06/16 05:22:23;;;;;;;2.60;2.17;;;;;;;31.32;24.22;95627.22;4982371;28;20267;-73
2021/06/16 05:24:49;;;;;;;3.58;2.47;;;;;;;30.56;25.47;95629.06;4975866;28;20208;-74
2021/06/16 05:27:17;;;;;;;3.47;2.20;;;;;;;30.39;25.21;95620.50;4993579;28;20234;-74
2021/06/16 05:29:44;;;;;;;2.40;2.28;;;;;;;30.96;24.80;95624.69;4979005;28;20191;-73
2021/06/16 05:32:09;;;;;;;4.40;2.25;;;;;;;29.66;26.42;95622.66;4984074;28;20621;-74
2021/06/16 05:34:35;;;;;;;2.53;2.10;;;;;;;30.34;25.00;95617.84;4991837;28;20294;-73
2021/06/16 05:37:01;;;;;;;4.45;2.40;;;;;;;30.05;25.73;95625.63;4959867;28;20323;-74
2021/06/16 05:39:26;;;;;;;2.75;2.40;;;;;;;31.06;24.68;95624.63;4978206;28;20674;-73
2021/06/16 05:41:52;;;;;;;3.13;2.33;;;;;;;31.20;23.79;95619.50;4986513;28;20705;-72
2021/06/16 05:44:17;;;;;;;3.47;2.20;;;;;;;31.21;24.34;95626.50;4975835;28;20635;-73
2021/06/16 05:46:43;;;;;;;3.85;2.20;;;;;;;31.44;24.43;95627.69;4975722;28;20176;-73
2021/06/16 05:49:08;;;;;;;3.17;2.63;;;;;;;31.82;23.44;95616.22;4993249;28;20262;-73
2021/06/16 05:51:33;;;;;;;3.30;2.65;;;;;;;31.82;23.63;95626.94;4983399;28;20195;-74
2021/06/16 05:53:59;;;;;;;4.22;2.40;;;;;;;32.11;23.22;95620.81;4976927;28;20700;-74
2021/06/16 05:56:24;;;;;;;2.13;1.92;;;;;;;32.71;22.54;95621.34;4994836;28;20183;-74
2021/06/16 05:58:49;;;;;;;4.80;2.30;;;;;;;32.82;22.38;95622.81;4995226;28;20178;-74
2021/06/16 06:01:15;;;;;;;4.43;2.17;;;;;;;31.69;23.57;95626.72;4990172;28;20726;-73
2021/06/16 06:03:42;;;;;;;2.85;2.55;;;;;;;30.59;25.17;95619.69;4982234;28;20187;-73
2021/06/16 06:06:07;;;;;;;2.50;2.30;;;;;;;31.73;23.84;95625.13;4995089;28;20237;-74
2021/06/16 06:08:33;;;;;;;6.07;2.50;;;;;;;31.24;24.32;95621.38;5012605;28;20629;-74
2021/06/16 06:10:58;;;;;;;2.45;2.20;;;;;;;32.24;23.54;95611.28;4978592;28;20242;-73
2021/06/16 06:13:23;;;;;;;3.17;2.50;;;;;;;33.20;22.39;95626.41;5002958;28;20183;-73
2021/06/16 06:15:49;;;;;;;4.43;2.25;;;;;;;31.52;24.29;95627.09;4978246;28;20563;-73
2021/06/16 06:18:14;;;;;;;3.17;2.33;;;;;;;30.35;25.29;95625.63;4959200;28;20203;-73
2021/06/16 06:20:39;;;;;;;2.33;2.05;;;;;;;31.35;24.22;95622.09;4975072;28;20250;-73
2021/06/16 06:23:05;;;;;;;5.97;2.55;;;;;;;32.21;23.87;95618.03;4990910;28;20240;-73
2021/06/16 06:25:30;;;;;;;2.38;2.15;;;;;;;31.49;24.63;95622.31;5000099;28;20208;-73
2021/06/16 06:27:55;;;;;;;3.13;2.30;;;;;;;32.45;22.66;95623.47;4975176;28;20176;-74
2021/06/16 06:30:21;;;;;;;3.38;2.63;;;;;;;32.01;23.79;95624.38;4975028;28;20544;-73
2021/06/16 06:32:46;;;;;;;3.05;2.35;;;;;;;31.11;23.99;95629.19;4995062;28;20625;-73
2021/06/16 06:35:11;;;;;;;3.83;2.65;;;;;;;30.84;25.10;95632.25;4981196;28;20204;-73
2021/06/16 06:37:37;;;;;;;4.13;2.30;;;;;;;31.74;24.40;95630.19;4974912;28;20186;-73
2021/06/16 06:40:04;;;;;;;7.03;3.03;;;;;;;30.99;25.48;95624.13;4974972;28;20571;-74
2021/06/16 06:42:29;;;;;;;3.90;2.60;;;;;;;31.81;23.87;95627.22;4958765;28;20179;-74
2021/06/16 06:44:54;;;;;;;3.92;2.15;;;;;;;31.17;25.05;95628.88;4987109;28;20217;-75
2021/06/16 06:47:21;;;;;;;2.78;2.40;;;;;;;31.85;24.19;95620.22;5004610;28;20231;-73
2021/06/16 06:49:47;;;;;;;4.32;2.65;;;;;;;32.18;23.39;95620.50;4994579;28;20176;-74
2021/06/16 06:52:12;;;;;;;6.15;2.40;;;;;;;31.29;24.27;95613.31;4994368;28;20171;-74
2021/06/16 06:54:37;;;;;;;2.53;2.15;;;;;;;31.00;24.49;95615.81;5008707;28;20218;-74
2021/06/16 06:57:03;;;;;;;18.13;9.55;;;;;;;31.88;24.39;95618.84;5003596;28;20237;-74
2021/06/16 06:59:29;;;;;;;4.63;2.38;;;;;;;30.03;25.57;95617.84;4994096;28;20187;-73
2021/06/16 07:01:54;;;;;;;3.78;2.65;;;;;;;30.47;24.90;95617.28;4994109;28;20179;-74
2021/06/16 07:04:19;;;;;;;4.57;2.38;;;;;;;30.46;25.48;95621.03;5010839;28;20645;-72
2021/06/16 07:06:45;;;;;;;8.73;4.50;;;;;;;30.75;25.38;95607.09;4994864;28;20648;-74
2021/06/16 07:09:10;;;;;;;4.90;2.50;;;;;;;31.58;24.02;95612.59;4993772;28;20185;-74
2021/06/16 07:11:35;;;;;;;4.82;2.95;;;;;;;31.47;24.69;95619.91;5005325;28;20187;-73
2021/06/16 07:14:00;;;;;;;2.90;2.25;;;;;;;31.36;24.42;95622.91;4998421;28;20187;-73
2021/06/16 07:16:26;;;;;;;6.45;2.40;;;;;;;31.04;24.59;95618.75;4995341;28;20184;-72
2021/06/16 07:18:52;;;;;;;3.88;2.05;;;;;;;31.35;24.41;95618.63;4999584;28;20238;-72
2021/06/16 07:21:17;;;;;;;2.30;2.10;;;;;;;31.90;23.91;95612.13;4991781;28;20306;-72
2021/06/16 07:23:43;;;;;;;2.90;2.20;;;;;;;31.24;25.15;95620.56;4974387;28;20636;-73
2021/06/16 07:26:08;;;;;;;3.80;2.50;;;;;;;31.81;24.08;95617.28;4975597;28;20207;-73
2021/06/16 07:28:33;;;;;;;5.35;2.55;;;;;;;30.94;24.95;95608.88;4985785;28;20552;-73
2021/06/16 07:30:59;;;;;;;3.95;2.60;;;;;;;32.49;22.59;95610.25;5011377;28;20258;-73
2021/06/16 07:33:24;;;;;;;1.88;1.75;;;;;;;32.11;23.44;95607.38;5010968;28;20600;-73
2021/06/16 07:35:49;;;;;;;5.95;2.55;;;;;;;30.81;24.42;95614.00;4993841;28;20222;-73
2021/06/16 07:38:15;;;;;;;4.30;2.40;;;;;;;31.35;23.66;95607.88;5000735;28;20710;-72
2021/06/16 07:40:40;;;;;;;2.58;1.98;;;;;;;31.62;24.37;95602.88;4978513;28;20796;-73
2021/06/16 07:43:05;;;;;;;5.80;2.45;;;;;;;32.11;23.35;95610.84;4958109;28;20184;-73
2021/06/16 07:45:31;;;;;;;3.17;2.60;;;;;;;31.58;23.91;95604.53;4974364;28;20302;-73
2021/06/16 07:47:57;;;;;;;3.13;2.15;;;;;;;30.37;25.58;95607.41;5003106;28;20175;-73
2021/06/16 07:50:22;;;;;;;4.03;2.30;;;;;;;31.01;24.85;95605.91;4985922;28;20180;-73
2021/06/16 07:52:48;;;;;;;4.70;2.67;;;;;;;31.11;24.87;95599.69;4977763;28;20183;-73
2021/06/16 07:55:13;;;;;;;2.40;2.20;;;;;;;30.75;24.91;95604.41;4995044;28;20198;-76
2021/06/16 07:57:39;;;;;;;6.80;2.47;;;;;;;30.84;25.60;95605.44;4995312;28;20560;-75
2021/06/16 08:00:05;;;;;;;4.40;2.40;;;;;;;30.42;26.00;95595.88;4988113;28;20572;-75
2021/06/16 08:02:31;;;;;;;4.00;2.35;;;;;;;31.46;23.77;95598.72;5000460;28;20215;-76
2021/06/16 08:04:56;;;;;;;3.72;2.67;;;;;;;31.22;24.37;95599.38;4987627;28;20252;-75
2021/06/16 08:07:22;;;;;;;2.83;2.30;;;;;;;30.02;26.71;95594.81;5013579;28;20175;-75
2021/06/16 08:09:47;;;;;;;6.20;2.35;;;;;;;30.78;24.75;95606.53;4995626;28;20274;-75
2021/06/16 08:12:13;;;;;;;4.35;2.50;;;;;;;30.82;24.50;95599.53;4985110;28;20213;-75
2021/06/16 08:14:39;;;;;;;2.83;2.28;;;;;;;30.83;24.87;95603.81;4977142;28;20221;-75
2021/06/16 08:17:05;;;;;;;4.35;2.30;;;;;;;30.63;26.21;95602.78;4977883;28;20544;-73
2021/06/16 08:19:32;;;;;;;3.47;2.28;;;;;;;30.32;26.50;95599.38;4980552;28;20286;-73
2021/06/16 08:21:57;;;;;;;2.55;2.35;;;;;;;30.63;24.97;95597.41;5004706;28;20194;-73
2021/06/16 08:24:23;;;;;;;2.47;2.05;;;;;;;30.61;25.10;95599.56;4994349;28;20219;-72
2021/06/16 08:26:48;;;;;;;4.40;2.22;;;;;;;30.09;26.08;95600.75;4994572;28;20191;-73
2021/06/16 08:29:14;;;;;;;2.95;2.60;;;;;;;30.15;25.77;95594.31;4977260;28;20335;-73
2021/06/16 08:31:39;;;;;;;2.92;2.30;;;;;;;29.67;26.30;95595.63;4975291;28;20207;-73
2021/06/16 08:34:04;;;;;;;5.28;2.20;;;;;;;29.78;26.88;95596.44;4987952;28;20187;-73
2021/06/16 08:36:30;;;;;;;2.80;2.28;;;;;;;29.45;27.74;95589.69;4996275;28;20171;-73
2021/06/16 08:38:55;;;;;;;2.42;2.25;;;;;;;29.20;28.12;95587.75;5014147;28;20206;-72
2021/06/16 08:41:21;;;;;;;5.10;2.65;;;;;;;29.27;27.47;95588.31;5008248;28;20184;-73
2021/06/16 08:43:49;;;;;;;2.38;2.17;;;;;;;29.66;27.22;95583.31;5002108;28;20203;-72
2021/06/16 08:46:15;;;;;;;4.57;2.40;;;;;;;29.58;27.86;95581.97;4977641;28;20761;-75
2021/06/16 08:48:41;;;;;;;6.43;2.53;;;;;;;29.50;27.54;95582.50;4976979;28;20259;-75
2021/06/16 08:51:09;;;;;;;4.75;2.58;;;;;;;29.77;27.89;95587.63;4994065;28;20180;-75
2021/06/16 08:53:35;;;;;;;3.17;2.72;;;;;;;29.11;27.69;95582.13;4987821;28;20175;-75
2021/06/16 08:56:01;;;;;;;6.28;2.97;;;;;;;29.02;28.84;95583.72;4978162;28;20725;-75
2021/06/16 08:58:26;;;;;;;3.22;2.28;;;;;;;29.02;28.91;95591.72;4959719;28;20218;-76
2021/06/16 09:00:52;;;;;;;4.75;2.85;;;;;;;29.12;29.90;95588.28;4976770;28;20203;-75
2021/06/16 09:03:18;;;;;;;4.05;2.55;;;;;;;28.55;29.13;95583.75;4983418;28;20188;-76
2021/06/16 09:05:43;;;;;;;3.80;2.58;;;;;;;28.91;30.09;95585.56;5001987;28;20215;-76
2021/06/16 09:08:20;;;;;;;5.55;2.67;;;;;;;28.77;29.45;95587.84;4993762;28;20176;-75
2021/06/16 09:10:47;;;;;;;4.22;2.72;;;;;;;28.79;29.07;95587.59;4976648;28;20643;-76
2021/06/16 09:13:29;;;;;;;4.30;2.47;;;;;;;29.37;29.29;95577.66;4981564;28;20208;-77
2021/06/16 09:15:55;;;;;;;5.20;2.78;;;;;;;29.42;28.40;95579.50;4987812;28;20257;-75
2021/06/16 09:18:21;;;;;;;3.38;2.58;;;;;;;29.68;29.26;95577.69;5013536;28;20183;-76
2021/06/16 09:20:48;;;;;;;4.97;2.90;;;;;;;29.38;28.56;95578.44;4996018;28;20190;-76
2021/06/16 09:23:31;;;;;;;3.47;2.58;;;;;;;29.82;26.86;95576.91;4994870;28;20190;-76
2021/06/16 09:26:08;;;;;;;3.90;2.60;;;;;;;29.95;28.81;95580.94;5003006;28;20215;-74
2021/06/16 09:28:35;;;;;;;3.90;2.15;;;;;;;30.28;27.89;95589.47;4995797;28;20167;-75
2021/06/16 09:31:01;;;;;;;5.68;2.67;;;;;;;30.21;27.48;95575.53;4979139;28;20650;-76
2021/06/16 09:33:26;;;;;;;7.38;2.47;;;;;;;29.85;28.19;95578.22;4995370;28;20242;-75
2021/06/16 09:35:52;;;;;;;4.18;2.20;;;;;;;30.34;26.79;95580.34;4986161;28;20302;-76
2021/06/16 09:38:31;;;;;;;4.32;2.22;;;;;;;30.08;27.63;95588.44;4983334;28;20184;-76
2021/06/16 09:40:58;;;;;;;3.05;2.10;;;;;;;30.44;27.04;95583.81;4976323;28;20179;-76
2021/06/16 09:43:24;;;;;;;4.32;2.50;;;;;;;30.64;26.43;95582.94;4975709;28;20176;-75
2021/06/16 09:45:53;;;;;;;7.28;2.60;;;;;;;29.90;27.14;95581.72;4985313;28;20216;-76
2021/06/16 09:48:36;;;;;;;6.03;2.40;;;;;;;29.71;28.63;95577.19;4988444;28;20179;-76
2021/06/16 09:51:24;;;;;;;7.07;2.45;;;;;;;30.14;28.47;95581.19;4995340;28;20179;-76
2021/06/16 09:54:13;;;;;;;4.70;2.50;;;;;;;30.48;26.98;95586.75;4995127;28;20184;-75
2021/06/16 09:56:52;;;;;;;3.40;2.25;;;;;;;30.53;27.99;95577.91;4994022;28;20218;-76
2021/06/16 09:59:35;;;;;;;3.63;2.20;;;;;;;30.63;27.43;95578.66;5005320;28;20179;-76
2021/06/16 10:02:01;;;;;;;5.30;2.50;;;;;;;30.51;27.10;95577.38;4994953;28;20206;-76
2021/06/16 10:04:35;;;;;;;4.22;2.30;;;;;;;30.83;28.03;95574.31;5012094;28;20678;-76
2021/06/16 10:07:10;;;;;;;2.38;2.17;;;;;;;30.38;26.92;95576.84;4992692;28;20698;-77
2021/06/16 10:09:37;;;;;;;2.83;2.53;;;;;;;30.54;27.14;95569.56;5000816;28;20208;-76
2021/06/16 10:12:02;;;;;;;4.95;2.70;;;;;;;30.33;27.34;95568.84;4975455;28;20640;-76
2021/06/16 10:14:27;;;;;;;3.83;2.97;;;;;;;30.77;27.80;95572.75;4974935;28;20243;-76
2021/06/16 10:16:54;;;;;;;4.78;2.70;;;;;;;30.77;27.07;95572.75;4961944;28;20185;-75
2021/06/16 10:19:19;;;;;;;3.85;2.90;;;;;;;30.75;26.13;95569.56;4970364;28;20167;-76
2021/06/16 10:21:44;;;;;;;3.17;2.60;;;;;;;30.50;27.58;95576.56;4994774;28;20256;-76
2021/06/16 10:24:10;;;;;;;5.55;2.80;;;;;;;30.48;27.87;95568.00;4994250;28;20195;-76
2021/06/16 10:26:36;;;;;;;6.68;3.03;;;;;;;30.49;27.02;95569.63;4994576;28;20183;-76
2021/06/16 10:29:10;;;;;;;2.95;2.30;;;;;;;30.63;26.82;95565.25;4986370;28;20179;-76
2021/06/16 10:31:39;;;;;;;4.15;2.70;;;;;;;30.47;25.55;95566.38;4992146;28;20230;-76
2021/06/16 10:34:04;;;;;;;2.85;2.25;;;;;;;30.07;26.28;95560.03;4994199;28;20187;-76
2021/06/16 10:36:31;;;;;;;4.15;2.67;;;;;;;30.46;25.63;95565.56;5012944;28;20198;-76
2021/06/16 10:38:56;;;;;;;5.07;2.40;;;;;;;30.49;27.25;95561.56;4992949;28;20651;-74
2021/06/16 10:41:37;;;;;;;4.17;2.73;;;;;;;30.45;27.24;95561.28;5003309;28;20218;-74
2021/06/16 10:44:24;;;;;;;3.53;2.50;;;;;;;30.70;25.99;95547.03;5011527;28;20414;-75
2021/06/16 10:47:00;;;;;;;3.47;2.60;;;;;;;30.81;26.68;95563.06;4978205;28;20179;-74
2021/06/16 10:49:50;;;;;;;2.35;2.15;;;;;;;30.63;25.62;95551.84;4987482;28;20171;-74
2021/06/16 10:52:18;;;;;;;5.05;2.50;;;;;;;30.60;24.44;95544.38;4977777;28;20678;-73
2021/06/16 10:55:00;;;;;;;5.35;2.97;;;;;;;30.37;26.02;95539.63;4993953;28;20194;-73
2021/06/16 10:57:26;;;;;;;3.35;2.95;;;;;;;30.11;26.33;95547.72;4993790;28;20206;-74
2021/06/16 10:59:51;;;;;;;3.63;2.55;;;;;;;30.34;25.42;95542.84;4975104;28;20770;-74
2021/06/16 11:02:19;;;;;;;3.60;2.08;;;;;;;30.38;26.80;95544.69;5002662;28;20183;-73
2021/06/16 11:04:45;;;;;;;2.53;1.92;;;;;;;30.68;25.12;95543.84;4976086;28;20350;-74
2021/06/16 11:07:29;;;;;;;3.25;2.35;;;;;;;30.40;25.60;95547.13;4992497;28;20186;-77
2021/06/16 11:10:06;;;;;;;6.43;2.63;;;;;;;30.36;25.67;95536.13;5010858;28;20254;-73
2021/06/16 11:12:32;;;;;;;3.88;2.28;;;;;;;30.71;24.90;95537.91;5005211;28;20178;-74
2021/06/16 11:14:59;;;;;;;10.85;3.22;;;;;;;30.55;25.92;95536.34;5009692;28;20222;-73
2021/06/16 11:17:33;;;;;;;6.95;2.78;;;;;;;30.73;24.95;95541.13;4994167;28;20258;-74
2021/06/16 11:20:22;;;;;;;4.68;2.40;;;;;;;30.83;24.60;95542.16;5012838;28;20201;-73
2021/06/16 11:22:49;;;;;;;3.05;2.75;;;;;;;30.64;25.96;95531.22;4982116;28;20239;-73
2021/06/16 11:25:17;;;;;;;3.03;2.50;;;;;;;30.61;24.77;95527.22;4997229;28;20230;-73
2021/06/16 11:28:07;;;;;;;5.93;2.80;;;;;;;30.58;24.67;95530.47;4997470;28;20175;-73
2021/06/16 11:30:53;;;;;;;4.60;2.58;;;;;;;30.54;25.80;95525.91;4996209;28;20262;-74
2021/06/16 11:33:19;;;;;;;4.38;2.75;;;;;;;30.58;25.58;95525.09;4995696;28;20541;-73
2021/06/16 11:35:51;;;;;;;4.75;2.58;;;;;;;30.68;25.69;95538.47;4997501;28;20207;-73